EDW54V LGKO-LSZH
Flight info
| Callsign | EDW54V |
|---|---|
| Flight time | N/A |
| Altitude | 34000 |
| Route | GILOS UM601 MADEX DCT KUGGI DCT DIMIS DCT RODON DCT KOFER DCT VAKSU DCT VEKEN DCT ERKIR DCT KPT L856 NEGRA |
| Aircraft | A320/M-SDE2E3FGIRWXY/L |
Departure
| Time | 2026-05-07 12:06 |
|---|---|
| Airport | Kos International Airport "Ippokratis" (LGKO) |
Arrival
| Time | N/A |
|---|---|
| Airport | Zürich Airport (LSZH) |
| Time | Latitude | Longitude | Altitude | Speed | Heading |
|---|---|---|---|---|---|
| 2026-05-07 11:49 | 36.80178 | 27.08897 | 417 ft | 0 kts | 58° |
| 2026-05-07 11:59 | 36.80173 | 27.08887 | 410 ft | 4 kts | 58° |
| 2026-05-07 11:59 | 36.80159 | 27.08859 | 411 ft | 4 kts | 55° |
| 2026-05-07 11:59 | 36.80141 | 27.08836 | 413 ft | 4 kts | 19° |
| 2026-05-07 12:00 | 36.80122 | 27.08836 | 412 ft | 1 kts | 328° |
| 2026-05-07 12:00 | 36.80107 | 27.08849 | 415 ft | 0 kts | 328° |
| 2026-05-07 12:03 | 36.80108 | 27.08848 | 414 ft | 2 kts | 328° |
| 2026-05-07 12:03 | 36.80153 | 27.08812 | 414 ft | 9 kts | 328° |
| 2026-05-07 12:03 | 36.80205 | 27.08772 | 415 ft | 9 kts | 328° |
| 2026-05-07 12:04 | 36.80253 | 27.08735 | 420 ft | 10 kts | 328° |
| 2026-05-07 12:04 | 36.80315 | 27.08673 | 421 ft | 11 kts | 307° |
| 2026-05-07 12:04 | 36.80345 | 27.08563 | 421 ft | 14 kts | 283° |
| 2026-05-07 12:04 | 36.80365 | 27.08456 | 413 ft | 8 kts | 283° |
| 2026-05-07 12:05 | 36.80347 | 27.08422 | 415 ft | 5 kts | 180° |
| 2026-05-07 12:05 | 36.80328 | 27.08435 | 418 ft | 0 kts | 147° |
| 2026-05-07 12:05 | 36.80208 | 27.08529 | 415 ft | 56 kts | 148° |
| 2026-05-07 12:06 | 36.79680 | 27.08941 | 417 ft | 119 kts | 148° |
| 2026-05-07 12:06 | 36.78834 | 27.09601 | 527 ft | 156 kts | 150° |
| 2026-05-07 12:06 | 36.77935 | 27.10288 | 1178 ft | 154 kts | 151° |
| 2026-05-07 12:06 | 36.77018 | 27.10978 | 1861 ft | 154 kts | 151° |
| 2026-05-07 12:07 | 36.76098 | 27.11669 | 2484 ft | 154 kts | 151° |
| 2026-05-07 12:07 | 36.75178 | 27.12359 | 2951 ft | 155 kts | 149° |
| 2026-05-07 12:07 | 36.74255 | 27.13053 | 3403 ft | 155 kts | 149° |
| 2026-05-07 12:07 | 36.73325 | 27.13757 | 3839 ft | 156 kts | 148° |
| 2026-05-07 12:08 | 36.72390 | 27.14466 | 4256 ft | 158 kts | 148° |
| 2026-05-07 12:08 | 36.71446 | 27.15184 | 4658 ft | 160 kts | 148° |
| 2026-05-07 12:08 | 36.70486 | 27.15897 | 5078 ft | 161 kts | 153° |
| 2026-05-07 12:08 | 36.69382 | 27.16152 | 5396 ft | 170 kts | 190° |
| 2026-05-07 12:09 | 36.68287 | 27.15455 | 5528 ft | 190 kts | 228° |
| 2026-05-07 12:09 | 36.67706 | 27.13928 | 5683 ft | 208 kts | 269° |
| 2026-05-07 12:09 | 36.68102 | 27.12163 | 5871 ft | 224 kts | 304° |
| 2026-05-07 12:09 | 36.69033 | 27.10468 | 6057 ft | 249 kts | 307° |
| 2026-05-07 12:10 | 36.70094 | 27.08639 | 6410 ft | 269 kts | 307° |
| 2026-05-07 12:10 | 36.71215 | 27.06725 | 7052 ft | 276 kts | 307° |
| 2026-05-07 12:10 | 36.72351 | 27.04777 | 7821 ft | 279 kts | 307° |
| 2026-05-07 12:10 | 36.73476 | 27.02833 | 8603 ft | 280 kts | 307° |
| 2026-05-07 12:11 | 36.74616 | 27.00851 | 9405 ft | 282 kts | 307° |
| 2026-05-07 12:11 | 36.75759 | 26.98854 | 10192 ft | 284 kts | 307° |
| 2026-05-07 12:11 | 36.76946 | 26.96777 | 10500 ft | 305 kts | 307° |
| 2026-05-07 12:11 | 36.78226 | 26.94537 | 10682 ft | 328 kts | 307° |